Time;durP1;ratioP1;P1;durP2;ratioP2;P2;SDS_P1;SDS_P2;PMS_P1;PMS_P2;Temp;Humidity;BMP_temperature;BMP_pressure;BME280_temperature;BME280_humidity;BME280_pressure;Samples;Min_cycle;Max_cycle;Signal;HPM_P1;HPM_P2
2021/10/27 03:44:06;;;;;;;24.10;15.82;;;;;;;3.96;74.25;100957.47;5026902;28;105805;-63
2021/10/27 03:46:32;;;;;;;26.17;16.08;;;;;;;3.95;74.43;100955.81;5025538;27;106570;-64
2021/10/27 03:48:58;;;;;;;24.65;15.43;;;;;;;3.96;74.58;100954.84;5025099;28;106115;-63
2021/10/27 03:51:24;;;;;;;30.38;17.45;;;;;;;3.99;74.88;100949.38;5023270;27;106912;-63
2021/10/27 03:53:49;;;;;;;28.80;16.60;;;;;;;4.03;75.09;100945.56;5024774;28;106468;-65
2021/10/27 03:56:15;;;;;;;29.20;17.23;;;;;;;4.09;75.44;100944.28;5025118;27;106060;-65
2021/10/27 03:58:40;;;;;;;26.83;16.30;;;;;;;4.13;75.51;100951.03;5024904;27;106131;-65
2021/10/27 04:01:06;;;;;;;30.05;17.02;;;;;;;4.22;75.61;100941.59;5024261;28;106453;-66
2021/10/27 04:03:31;;;;;;;28.75;18.00;;;;;;;4.27;75.45;100944.75;5024197;27;107173;-65
2021/10/27 04:05:57;;;;;;;28.05;18.05;;;;;;;4.28;75.36;100954.34;5025171;27;105849;-65
2021/10/27 04:08:22;;;;;;;30.25;17.90;;;;;;;4.30;75.22;100952.44;5024830;27;106198;-66
2021/10/27 04:10:47;;;;;;;27.02;15.95;;;;;;;4.32;75.56;100949.69;5024529;27;105930;-66
2021/10/27 04:13:14;;;;;;;30.33;18.50;;;;;;;4.35;75.80;100950.31;5023702;28;106125;-66
2021/10/27 04:15:40;;;;;;;28.92;16.67;;;;;;;4.39;75.92;100950.94;5024835;27;105993;-66
2021/10/27 04:18:05;;;;;;;28.20;16.98;;;;;;;4.40;76.19;100945.56;5024273;27;106136;-67
2021/10/27 04:20:31;;;;;;;26.50;17.52;;;;;;;4.43;75.62;100952.41;5022409;27;109311;-66
2021/10/27 04:22:56;;;;;;;27.58;17.63;;;;;;;4.40;75.85;100945.56;5023916;28;105969;-66
2021/10/27 04:25:22;;;;;;;30.92;17.13;;;;;;;4.39;75.51;100951.78;5024229;28;106233;-66
2021/10/27 04:27:47;;;;;;;26.73;17.55;;;;;;;4.39;76.10;100959.69;5024151;27;105901;-66
2021/10/27 04:30:13;;;;;;;28.00;17.88;;;;;;;4.40;75.62;100956.09;5023611;27;107422;-66
2021/10/27 04:32:41;;;;;;;28.25;17.67;;;;;;;4.43;75.81;100956.81;5023667;27;105981;-66
2021/10/27 04:35:07;;;;;;;29.27;18.20;;;;;;;4.44;75.70;100958.50;5024175;27;106116;-65
2021/10/27 04:37:36;;;;;;;30.15;17.42;;;;;;;4.44;76.39;100958.50;5023805;28;105993;-66
2021/10/27 04:40:02;;;;;;;30.65;16.83;;;;;;;4.44;75.95;100958.50;5022858;27;106058;-66
2021/10/27 04:42:28;;;;;;;31.25;17.20;;;;;;;4.46;75.91;100959.25;5023069;27;106283;-66
2021/10/27 04:44:53;;;;;;;28.90;18.38;;;;;;;4.44;76.16;100956.72;5024184;27;106040;-65
2021/10/27 04:47:18;;;;;;;28.35;17.48;;;;;;;4.41;75.78;100954.28;5023392;27;105876;-65
2021/10/27 04:49:44;;;;;;;28.55;16.90;;;;;;;4.40;76.33;100956.09;5023271;27;106086;-66
2021/10/27 04:52:09;;;;;;;28.42;17.77;;;;;;;4.39;76.10;100957.06;5022891;27;105910;-66
2021/10/27 04:54:34;;;;;;;27.33;16.40;;;;;;;4.39;76.02;100962.31;5014277;28;106503;-67
2021/10/27 04:57:00;;;;;;;28.92;17.23;;;;;;;4.38;76.06;100960.63;5009815;28;106095;-68
2021/10/27 04:59:29;;;;;;;27.15;17.83;;;;;;;4.35;76.40;100955.59;5009159;28;106057;-67
2021/10/27 05:01:55;;;;;;;29.63;16.80;;;;;;;4.34;75.90;100956.53;5009531;28;106090;-65
2021/10/27 05:04:20;;;;;;;29.33;17.88;;;;;;;4.35;76.19;100950.31;5010571;28;106020;-65
2021/10/27 05:06:46;;;;;;;29.40;17.92;;;;;;;4.35;76.31;100960.03;5009490;28;106324;-65
2021/10/27 05:09:11;;;;;;;29.80;17.63;;;;;;;4.33;76.48;100952.25;5008551;28;110330;-65
2021/10/27 05:11:37;;;;;;;29.92;17.45;;;;;;;4.33;76.69;100951.38;5008808;28;105966;-65
2021/10/27 05:14:02;;;;;;;27.73;17.90;;;;;;;4.33;76.89;100941.69;5010308;28;106418;-65
2021/10/27 05:16:28;;;;;;;35.45;18.60;;;;;;;4.34;76.84;100953.91;5007069;28;106457;-63
2021/10/27 05:18:53;;;;;;;28.20;17.45;;;;;;;4.35;77.05;100954.75;4989457;28;106380;-64
2021/10/27 05:21:19;;;;;;;30.00;17.75;;;;;;;4.36;77.06;100967.84;4989881;28;105863;-63
2021/10/27 05:23:44;;;;;;;28.67;16.67;;;;;;;4.37;77.03;100958.97;4990038;28;106156;-61
2021/10/27 05:26:09;;;;;;;30.05;17.00;;;;;;;4.39;77.01;100957.06;4989893;28;106251;-62
2021/10/27 05:28:35;;;;;;;30.73;17.95;;;;;;;4.40;76.75;100958.75;4989080;28;105968;-62
2021/10/27 05:31:00;;;;;;;28.70;17.23;;;;;;;4.44;77.18;100961.97;4989611;28;106099;-61
2021/10/27 05:33:25;;;;;;;28.90;16.85;;;;;;;4.48;77.22;100959.97;4990127;28;105915;-64
2021/10/27 05:35:51;;;;;;;27.63;17.80;;;;;;;4.50;77.01;100960.72;4988337;28;106337;-64
2021/10/27 05:38:16;;;;;;;28.77;16.77;;;;;;;4.54;76.84;100962.19;4989702;28;106093;-64
2021/10/27 05:40:41;;;;;;;30.08;17.90;;;;;;;4.57;77.32;100959.31;4989542;28;109572;-62
2021/10/27 05:43:13;;;;;;;29.02;18.15;;;;;;;4.61;77.03;100963.41;4989630;28;106139;-63
2021/10/27 05:45:39;;;;;;;27.92;16.98;;;;;;;4.66;77.18;100963.06;4989367;28;106138;-66
2021/10/27 05:48:06;;;;;;;30.33;18.98;;;;;;;4.68;77.06;100961.16;4988759;28;105935;-63
2021/10/27 05:50:37;;;;;;;34.17;19.65;;;;;;;4.73;76.93;100959.03;4988522;28;106044;-65
2021/10/27 05:55:46;;;;;;;35.08;18.85;;;;;;;4.85;77.47;100973.09;4989386;28;106051;-65
2021/10/27 05:58:13;;;;;;;32.63;19.88;;;;;;;4.90;77.13;100969.16;4989364;28;106018;-63
2021/10/27 06:00:40;;;;;;;35.50;20.35;;;;;;;4.99;76.81;100978.22;4989327;28;105870;-65
2021/10/27 06:03:06;;;;;;;30.25;18.75;;;;;;;5.09;77.12;100981.81;4989501;28;106341;-64
2021/10/27 06:05:31;;;;;;;32.47;18.55;;;;;;;5.21;77.12;100984.53;5007175;28;106313;-65
2021/10/27 06:07:58;;;;;;;34.10;20.23;;;;;;;5.35;77.36;100983.47;5008896;28;107212;-64
2021/10/27 06:10:24;;;;;;;34.17;18.42;;;;;;;5.49;77.22;100977.97;5008954;28;105992;-63
2021/10/27 06:13:03;;;;;;;35.20;19.70;;;;;;;5.67;77.58;100978.38;5009362;28;105917;-65
2021/10/27 06:15:29;;;;;;;29.77;17.60;;;;;;;5.86;77.38;100976.91;5009064;28;106190;-65
2021/10/27 06:17:54;;;;;;;30.02;18.77;;;;;;;6.04;77.15;100979.94;5008770;28;106043;-66
2021/10/27 06:20:20;;;;;;;34.13;17.45;;;;;;;6.18;77.01;100984.13;5008512;28;105906;-64
2021/10/27 06:22:46;;;;;;;29.55;17.98;;;;;;;6.37;76.96;100992.31;5009106;28;106192;-63
2021/10/27 06:25:12;;;;;;;24.63;16.10;;;;;;;6.57;76.87;100989.84;5008689;28;105997;-65
2021/10/27 06:27:40;;;;;;;30.35;16.58;;;;;;;6.70;76.38;100998.47;5008599;28;107398;-65
2021/10/27 06:32:48;;;;;;;31.33;16.58;;;;;;;7.04;76.74;101014.25;5006946;28;106047;-64
2021/10/27 06:35:17;;;;;;;28.10;16.77;;;;;;;7.21;76.35;101004.06;5006979;28;106357;-65
2021/10/27 06:48:20;;;;;;;24.55;14.93;;;;;;;7.92;75.14;101019.25;5008147;28;106412;-63
2021/10/27 06:50:45;;;;;;;25.45;14.63;;;;;;;8.09;75.49;101010.69;5008114;28;106327;-63
2021/10/27 06:53:11;;;;;;;27.00;15.00;;;;;;;8.22;74.49;101012.25;5008852;28;105917;-63
2021/10/27 06:55:39;;;;;;;47.47;19.77;;;;;;;8.31;74.37;101014.13;5008585;28;106125;-63
2021/10/27 06:58:05;;;;;;;47.50;19.02;;;;;;;8.39;74.67;101014.28;5007669;28;105891;-64
2021/10/27 07:00:39;;;;;;;53.15;20.73;;;;;;;8.53;74.10;101012.22;5007318;28;106094;-64
2021/10/27 07:16:37;;;;;;;29.10;14.90;;;;;;;9.35;72.76;101024.31;5008071;28;106061;-66
2021/10/27 07:19:03;;;;;;;27.05;14.73;;;;;;;9.45;73.10;101021.63;5007401;28;105982;-65
2021/10/27 07:21:28;;;;;;;23.02;13.52;;;;;;;9.59;72.49;101023.00;5007428;28;106022;-65
2021/10/27 07:23:54;;;;;;;26.15;14.38;;;;;;;9.70;72.46;101025.47;5008389;28;105928;-65
2021/10/27 07:26:20;;;;;;;21.98;13.05;;;;;;;9.89;72.17;101015.78;5007992;28;106337;-62
2021/10/27 07:28:48;;;;;;;24.90;14.57;;;;;;;10.02;71.58;101020.75;5007419;28;106879;-66
2021/10/27 07:31:16;;;;;;;24.17;13.13;;;;;;;10.14;71.70;101009.78;5007304;28;106079;-66
2021/10/27 07:33:42;;;;;;;20.90;13.38;;;;;;;10.31;71.29;101010.81;5008033;28;105888;-66
2021/10/27 07:36:29;;;;;;;20.17;13.88;;;;;;;10.50;71.25;101020.56;5006095;28;106054;-66
2021/10/27 07:41:38;;;;;;;20.67;13.98;;;;;;;10.98;70.33;101025.72;5007063;28;106189;-66
2021/10/27 07:44:14;;;;;;;20.15;13.50;;;;;;;11.18;70.42;101024.56;5008040;28;106079;-67
2021/10/27 07:46:41;;;;;;;23.02;14.20;;;;;;;11.43;69.33;101024.75;5007140;28;106212;-66
2021/10/27 07:49:07;;;;;;;21.25;13.48;;;;;;;11.83;69.65;101028.69;5007280;28;105914;-67
2021/10/27 07:51:32;;;;;;;24.92;13.18;;;;;;;12.25;69.57;101023.59;5007438;28;106326;-67
2021/10/27 07:53:57;;;;;;;22.38;13.32;;;;;;;13.07;68.38;101020.25;5008007;28;105822;-68
2021/10/27 07:56:23;;;;;;;21.20;13.52;;;;;;;14.16;67.89;101027.00;5007457;28;106317;-67
2021/10/27 07:58:50;;;;;;;24.80;13.40;;;;;;;15.22;66.30;101030.06;5007070;28;106116;-67
2021/10/27 08:01:16;;;;;;;28.50;14.30;;;;;;;15.94;64.04;101030.59;5006995;28;106077;-68
2021/10/27 08:03:41;;;;;;;21.73;12.10;;;;;;;16.37;62.16;101025.34;5007066;28;105929;-65
2021/10/27 08:06:10;;;;;;;20.98;11.43;;;;;;;16.79;60.17;101033.72;5007360;28;106200;-65
2021/10/27 08:08:35;;;;;;;19.10;11.00;;;;;;;16.94;59.93;101030.19;5006845;28;107153;-67
2021/10/27 08:11:01;;;;;;;16.48;11.40;;;;;;;17.20;59.71;101040.34;5007224;28;106017;-67
2021/10/27 08:13:27;;;;;;;18.00;12.05;;;;;;;17.35;57.59;101034.91;5006757;28;106089;-65
2021/10/27 08:15:52;;;;;;;14.23;10.07;;;;;;;17.45;57.82;101030.00;5007338;28;106317;-71
2021/10/27 08:18:18;;;;;;;13.90;10.60;;;;;;;18.02;57.56;101038.09;5006832;28;106480;-63
2021/10/27 08:20:45;;;;;;;14.50;10.48;;;;;;;18.83;56.81;101036.53;5006963;28;106243;-62
2021/10/27 08:23:12;;;;;;;16.73;9.73;;;;;;;19.41;54.03;101036.81;5007560;28;106273;-63
2021/10/27 08:25:46;;;;;;;14.25;9.55;;;;;;;20.07;53.45;101050.50;5006447;28;106017;-64
2021/10/27 08:28:16;;;;;;;13.05;9.40;;;;;;;21.13;51.61;101038.31;5006950;28;106207;-64
2021/10/27 08:33:20;;;;;;;14.25;10.00;;;;;;;22.73;47.47;101045.03;5010937;28;105883;-63
2021/10/27 08:35:45;;;;;;;14.95;9.27;;;;;;;23.24;46.49;101046.38;5010180;28;106292;-63
2021/10/27 08:38:11;;;;;;;12.35;8.98;;;;;;;23.94;44.32;101050.22;5009935;28;106010;-63
2021/10/27 08:40:36;;;;;;;12.20;8.70;;;;;;;23.96;43.25;101053.53;5010013;28;106079;-63
2021/10/27 08:43:02;;;;;;;11.50;8.98;;;;;;;23.74;42.45;101052.44;5010528;28;106024;-63
2021/10/27 08:45:28;;;;;;;13.90;8.80;;;;;;;23.87;40.93;101063.09;5010349;28;106193;-62
2021/10/27 08:47:54;;;;;;;13.63;9.75;;;;;;;24.04;39.71;101057.75;5009799;28;106177;-64
2021/10/27 08:50:21;;;;;;;14.18;11.30;;;;;;;24.44;40.35;101053.41;5010111;28;106536;-63
2021/10/27 08:52:47;;;;;;;15.50;9.23;;;;;;;24.80;38.78;101054.13;5010991;28;106322;-63
2021/10/27 08:55:15;;;;;;;15.57;9.20;;;;;;;24.17;37.29;101059.41;5010167;28;106127;-62
2021/10/27 08:57:44;;;;;;;15.25;8.48;;;;;;;24.20;38.11;101056.19;5009634;28;106101;-63
2021/10/27 09:03:02;;;;;;;14.05;9.30;;;;;;;26.57;35.62;101046.38;5009745;28;106780;-64
2021/10/27 09:33:45;;;;;;;11.05;7.20;;;;;;;27.63;28.81;101063.22;5009941;28;106405;-63
2021/10/27 09:36:20;;;;;;;8.52;6.18;;;;;;;27.17;27.92;101060.09;5010555;28;106011;-65
2021/10/27 09:39:52;;;;;;;9.85;6.70;;;;;;;27.24;27.49;101057.97;5010182;28;105892;-65
2021/10/27 09:43:03;;;;;;;13.82;6.20;;;;;;;27.67;27.65;101052.59;5008663;28;106279;-66
2021/10/27 09:46:08;;;;;;;10.10;6.68;;;;;;;27.63;26.88;101052.28;5011759;28;106460;-65
2021/10/27 10:04:03;;;;;;;9.38;6.30;;;;;;;30.71;23.06;101050.75;5008755;28;105832;-67
2021/10/27 10:04:42;;;;;;;11.13;5.47;;;;;;;32.04;21.39;101042.41;5008673;28;106741;-69
2021/10/27 10:07:09;;;;;;;11.25;5.55;;;;;;;32.16;21.53;101047.50;5009119;28;105997;-68
2021/10/27 10:09:39;;;;;;;8.90;5.20;;;;;;;32.91;20.05;101047.84;5009851;28;106028;-67
2021/10/27 10:12:05;;;;;;;7.47;5.15;;;;;;;33.47;19.73;101048.03;5008517;28;106261;-65
2021/10/27 10:14:31;;;;;;;7.05;5.13;;;;;;;33.21;19.82;101046.50;5008888;28;106071;-70
2021/10/27 10:16:58;;;;;;;7.55;5.25;;;;;;;33.30;20.11;101048.59;5008761;28;106227;-66
2021/10/27 10:19:36;;;;;;;7.00;5.00;;;;;;;34.25;19.24;101039.84;5009464;28;105938;-66
2021/10/27 10:22:03;;;;;;;6.93;4.72;;;;;;;34.63;18.61;101052.59;5009357;28;106040;-66
2021/10/27 10:24:34;;;;;;;8.18;4.43;;;;;;;34.70;18.37;101051.00;5008361;28;107334;-67
2021/10/27 10:27:07;;;;;;;9.05;3.88;;;;;;;34.37;18.87;101053.97;5007196;28;106374;-69
2021/10/27 10:29:52;;;;;;;6.55;4.43;;;;;;;34.68;17.99;101058.81;5009841;28;106136;-67
2021/10/27 10:32:25;;;;;;;8.23;4.45;;;;;;;35.56;17.73;101057.47;5008807;28;106377;-66
2021/10/27 10:34:55;;;;;;;7.43;4.15;;;;;;;37.11;16.44;101065.91;5008796;28;105963;-64
2021/10/27 10:43:57;;;;;;;8.23;4.38;;;;;;;37.50;14.74;101058.47;5015775;28;105983;-63
2021/10/27 10:58:38;;;;;;;8.65;5.28;;;;;;;32.85;18.87;101057.34;5005844;28;106406;-66
2021/10/27 11:38:39;;;;;;;9.23;4.70;;;;;;;34.10;17.46;101037.41;5007036;28;105937;-63
2021/10/27 11:40:58;;;;;;;12.95;7.82;;;;;;;33.99;17.43;101029.31;5008461;28;105888;-67
2021/10/27 11:43:54;;;;;;;8.77;4.82;;;;;;;33.90;17.64;101028.41;5007189;28;106388;-65
2021/10/27 11:46:13;;;;;;;10.30;5.47;;;;;;;33.80;17.48;101026.69;5007228;28;106266;-65
2021/10/27 11:48:53;;;;;;;8.68;5.45;;;;;;;34.92;16.80;101027.28;5008543;28;106258;-64
2021/10/27 11:51:20;;;;;;;8.50;6.22;;;;;;;34.67;16.63;101017.63;5008024;28;106191;-64
2021/10/27 11:53:46;;;;;;;9.65;6.00;;;;;;;35.70;16.06;101018.56;5007634;28;106321;-65
2021/10/27 11:56:21;;;;;;;8.18;5.50;;;;;;;35.77;15.96;101028.38;5007466;28;105961;-63
2021/10/27 11:58:54;;;;;;;10.43;5.68;;;;;;;35.35;16.23;101010.13;5007136;28;106438;-64
2021/10/27 12:01:35;;;;;;;9.25;6.00;;;;;;;34.58;16.45;101010.09;5007542;28;106277;-64
2021/10/27 12:04:02;;;;;;;7.72;5.63;;;;;;;32.39;18.16;101007.22;5008053;28;106951;-65
2021/10/27 12:12:31;;;;;;;8.32;5.43;;;;;;;33.08;17.89;101014.19;5009323;28;106371;-63
2021/10/27 12:15:26;;;;;;;9.20;4.95;;;;;;;32.47;18.71;101007.69;5010577;28;106162;-63
2021/10/27 12:18:01;;;;;;;7.78;4.43;;;;;;;33.87;17.81;100999.47;5010388;28;105850;-66
2021/10/27 12:20:34;;;;;;;7.80;4.28;;;;;;;35.23;16.97;101001.56;5011417;28;105914;-65
2021/10/27 12:23:00;;;;;;;6.80;4.32;;;;;;;36.17;16.00;100997.81;5010552;28;106330;-65
2021/10/27 12:25:27;;;;;;;8.10;4.38;;;;;;;36.47;15.71;100989.69;5010102;28;106342;-64
2021/10/27 12:27:59;;;;;;;9.60;5.90;;;;;;;35.99;16.00;100983.94;5009984;28;106619;-64
2021/10/27 12:30:24;;;;;;;9.27;5.03;;;;;;;36.09;16.19;100982.81;5010924;28;105933;-64
2021/10/27 12:32:56;;;;;;;8.55;4.63;;;;;;;36.16;15.67;100982.34;5010341;28;106158;-65
2021/10/27 12:35:25;;;;;;;6.78;4.90;;;;;;;34.95;16.48;100978.78;5009877;28;106514;-65
2021/10/27 12:37:54;;;;;;;9.82;5.43;;;;;;;34.04;17.17;100978.66;5010506;28;106146;-62
2021/10/27 12:40:36;;;;;;;9.35;5.55;;;;;;;34.57;17.19;100980.78;5010972;28;106088;-64
2021/10/27 12:43:09;;;;;;;11.52;5.65;;;;;;;35.17;16.50;100986.22;5010236;28;106163;-67
2021/10/27 12:45:42;;;;;;;7.25;5.05;;;;;;;35.29;16.06;100980.91;5010111;28;106596;-64
2021/10/27 12:48:14;;;;;;;7.75;4.60;;;;;;;36.19;15.82;100984.44;5010281;28;105872;-64
2021/10/27 12:50:57;;;;;;;6.95;4.38;;;;;;;35.85;15.50;100983.25;5011255;28;106028;-64
2021/10/27 12:53:40;;;;;;;6.65;4.60;;;;;;;35.38;15.75;100987.31;5010228;28;106222;-63
2021/10/27 12:56:13;;;;;;;7.55;4.78;;;;;;;35.41;16.07;100974.78;5010311;28;106373;-61
2021/10/27 12:58:43;;;;;;;8.38;4.78;;;;;;;35.94;15.47;100984.09;5010355;28;105990;-61
2021/10/27 13:01:33;;;;;;;8.10;5.30;;;;;;;36.24;15.45;100989.84;5011094;28;105838;-62
2021/10/27 16:31:46;;;;;;;23.73;13.20;;;;;;;10.43;52.09;100998.19;5024628;28;106492;-62
2021/10/27 16:34:13;;;;;;;22.38;12.90;;;;;;;10.41;52.95;100999.31;5022876;28;106331;-65
2021/10/27 16:36:39;;;;;;;26.48;14.32;;;;;;;10.40;53.66;101009.13;5022737;27;106910;-63
2021/10/27 16:39:05;;;;;;;20.92;12.73;;;;;;;10.41;54.33;101008.13;5022667;27;105996;-64
2021/10/27 16:41:30;;;;;;;21.55;12.52;;;;;;;10.42;54.76;101011.66;5022647;27;106080;-63
2021/10/27 16:43:56;;;;;;;24.48;13.73;;;;;;;10.42;54.86;101008.97;5023400;28;106456;-63
2021/10/27 16:46:21;;;;;;;22.05;11.88;;;;;;;10.42;55.13;101016.97;5022626;27;106044;-65
2021/10/27 16:48:48;;;;;;;22.52;13.73;;;;;;;10.40;55.46;101025.13;5022746;27;106669;-64
2021/10/27 16:51:13;;;;;;;25.60;14.05;;;;;;;10.38;55.80;101027.06;5022439;27;105960;-63
2021/10/27 16:53:39;;;;;;;26.02;14.52;;;;;;;10.36;55.96;101022.88;5023639;28;106167;-62
2021/10/27 16:56:04;;;;;;;26.08;14.85;;;;;;;10.33;56.10;101023.97;5023134;28;106161;-63
2021/10/27 16:58:31;;;;;;;25.58;15.00;;;;;;;10.29;56.52;101033.25;5022214;27;105927;-63
2021/10/27 17:00:57;;;;;;;23.98;14.32;;;;;;;10.24;56.61;101036.38;5022605;27;106303;-63
2021/10/27 17:03:22;;;;;;;24.92;15.18;;;;;;;10.24;56.75;101046.19;5023552;27;106343;-63
2021/10/27 17:05:48;;;;;;;26.83;15.80;;;;;;;10.22;57.40;101037.50;5023092;27;106568;-63
2021/10/27 17:08:16;;;;;;;26.65;16.20;;;;;;;10.21;57.72;101041.16;5022593;27;106097;-65
2021/10/27 17:10:47;;;;;;;26.90;15.50;;;;;;;10.19;58.21;101032.47;5021562;27;106626;-64
2021/10/27 17:13:13;;;;;;;29.60;16.38;;;;;;;10.17;58.15;101043.28;5022813;27;106055;-64
2021/10/27 17:15:39;;;;;;;26.88;15.30;;;;;;;10.13;58.20;101037.41;5022409;27;106146;-66
2021/10/27 17:18:04;;;;;;;24.40;15.07;;;;;;;10.09;58.28;101043.19;5021874;27;106826;-64
2021/10/27 17:20:30;;;;;;;35.38;17.38;;;;;;;10.03;58.47;101049.06;5021530;27;106204;-65
2021/10/27 17:23:00;;;;;;;39.38;19.15;;;;;;;9.98;58.40;101050.34;5022244;27;106921;-63
2021/10/27 17:25:26;;;;;;;39.28;19.48;;;;;;;9.93;58.58;101043.78;5022086;27;105962;-67
2021/10/27 17:27:52;;;;;;;32.15;18.52;;;;;;;9.88;59.16;101054.00;5022112;28;106074;-62
2021/10/27 17:30:18;;;;;;;35.10;17.60;;;;;;;9.83;59.20;101049.97;5021177;28;106663;-64
2021/10/27 17:32:44;;;;;;;28.25;16.85;;;;;;;9.79;59.54;101037.94;5022556;27;106104;-64
2021/10/27 17:35:18;;;;;;;27.63;17.15;;;;;;;9.75;59.41;101049.84;5021629;27;106397;-63
2021/10/27 17:37:45;;;;;;;29.88;17.13;;;;;;;9.72;59.78;101050.13;5022028;27;106024;-65
2021/10/27 17:40:18;;;;;;;31.52;17.83;;;;;;;9.68;60.07;101056.72;5022360;27;106029;-63
2021/10/27 17:42:46;;;;;;;31.52;18.85;;;;;;;9.65;60.24;101057.03;5011936;27;106058;-65
2021/10/27 17:45:14;;;;;;;30.45;17.95;;;;;;;9.62;60.53;101059.94;5008755;28;106347;-64
2021/10/27 17:47:44;;;;;;;29.58;18.88;;;;;;;9.59;60.75;101058.41;5007890;28;106288;-66
2021/10/27 17:50:25;;;;;;;36.17;19.23;;;;;;;9.56;61.25;101055.22;5008099;28;107131;-66
2021/10/27 17:58:51;;;;;;;30.63;19.27;;;;;;;9.44;61.45;101054.53;5008335;28;105991;-63
2021/10/27 18:01:08;;;;;;;38.30;20.05;;;;;;;9.42;61.56;101065.31;5004579;28;107400;-63
2021/10/27 18:03:35;;;;;;;34.17;19.95;;;;;;;9.40;61.80;101063.75;5008966;28;106071;-64
2021/10/27 18:06:04;;;;;;;31.70;19.70;;;;;;;9.37;62.33;101058.72;5008561;28;106388;-65
2021/10/27 18:08:31;;;;;;;32.05;19.77;;;;;;;9.34;62.02;101062.50;5007677;28;107155;-64
2021/10/27 18:10:59;;;;;;;38.65;20.98;;;;;;;9.28;62.47;101060.41;5007767;28;106536;-64
2021/10/27 18:13:29;;;;;;;38.05;21.50;;;;;;;9.22;62.07;101055.66;5007431;28;106136;-65
2021/10/27 18:16:03;;;;;;;35.20;19.90;;;;;;;9.18;62.23;101062.22;5005552;28;106332;-64
2021/10/27 18:18:35;;;;;;;33.53;19.92;;;;;;;9.12;62.74;101055.66;5006440;28;106661;-64
2021/10/27 18:21:00;;;;;;;34.42;19.35;;;;;;;9.07;62.33;101053.41;5008896;28;106093;-64
2021/10/27 18:28:38;;;;;;;34.92;20.05;;;;;;;8.97;63.19;101064.03;5003380;28;106432;-64
